Time;durP1;ratioP1;P1;durP2;ratioP2;P2;SDS_P1;SDS_P2;PMS_P1;PMS_P2;Temp;Humidity;BMP_temperature;BMP_pressure;BME280_temperature;BME280_humidity;BME280_pressure;Samples;Min_cycle;Max_cycle;Signal;HPM_P1;HPM_P2
2022/10/19 00:00:15;;;;;;;5.63;1.10;;;12.40;99.90;;;;;;4996976;28;20209;-62
2022/10/19 00:02:41;;;;;;;6.57;1.42;;;12.40;99.90;;;;;;4987070;28;21449;-62
2022/10/19 00:05:09;;;;;;;8.95;1.10;;;12.40;99.90;;;;;;4985049;28;20221;-62
2022/10/19 00:07:35;;;;;;;7.32;1.20;;;12.40;99.90;;;;;;4982713;28;20203;-62
2022/10/19 00:10:02;;;;;;;5.88;1.27;;;12.40;99.90;;;;;;4969177;28;20211;-62
2022/10/19 00:12:31;;;;;;;4.80;1.08;;;12.40;99.90;;;;;;4980929;28;20277;-63
2022/10/19 00:14:58;;;;;;;8.48;1.50;;;12.40;99.90;;;;;;4984977;28;20218;-62
2022/10/19 00:17:25;;;;;;;3.85;1.20;;;12.50;99.90;;;;;;4974040;28;20234;-62
2022/10/19 00:19:52;;;;;;;17.42;1.38;;;12.40;99.90;;;;;;4986148;28;20206;-62
2022/10/19 00:22:18;;;;;;;7.53;1.08;;;12.50;99.90;;;;;;4979156;28;20205;-62
2022/10/19 00:24:45;;;;;;;7.20;1.25;;;12.50;99.90;;;;;;4970602;28;20862;-61
2022/10/19 00:27:12;;;;;;;3.90;0.82;;;12.40;99.90;;;;;;5002470;28;20271;-62
2022/10/19 00:29:40;;;;;;;6.15;1.27;;;12.50;99.90;;;;;;4985583;28;20237;-62
2022/10/19 00:32:07;;;;;;;3.55;1.10;;;12.50;99.90;;;;;;5000192;28;22602;-62
2022/10/19 00:34:34;;;;;;;9.23;1.27;;;12.40;99.90;;;;;;4991098;28;20212;-62
2022/10/19 00:37:01;;;;;;;5.85;1.13;;;12.50;99.90;;;;;;4978157;28;20204;-62
2022/10/19 00:39:27;;;;;;;9.45;1.60;;;12.60;99.90;;;;;;4986849;28;20249;-62
2022/10/19 00:41:54;;;;;;;5.78;1.40;;;12.60;99.90;;;;;;4966739;28;20210;-62
2022/10/19 00:45:04;;;;;;;5.40;1.33;;;12.50;99.90;;;;;;4980820;28;20294;-61
2022/10/19 00:47:31;;;;;;;3.17;1.02;;;12.50;99.90;;;;;;4942781;28;20246;-62
2022/10/19 00:49:59;;;;;;;7.75;1.55;;;12.50;99.90;;;;;;4906726;28;20214;-62
2022/10/19 00:52:27;;;;;;;7.15;1.20;;;12.50;99.90;;;;;;4968826;28;20326;-63
2022/10/19 00:54:56;;;;;;;2.90;1.30;;;12.50;99.90;;;;;;4987918;28;20210;-62
2022/10/19 00:57:25;;;;;;;6.75;1.30;;;12.50;99.90;;;;;;4976891;28;20221;-62
2022/10/19 00:59:52;;;;;;;5.53;1.10;;;12.50;99.90;;;;;;4964964;28;20206;-62
2022/10/19 01:02:20;;;;;;;4.65;0.88;;;12.40;99.90;;;;;;4997834;28;20202;-63
2022/10/19 01:04:51;;;;;;;6.25;0.95;;;12.40;99.90;;;;;;5002097;28;21010;-62
2022/10/19 01:07:19;;;;;;;9.00;1.15;;;12.40;99.90;;;;;;4989925;28;20206;-62
2022/10/19 01:09:46;;;;;;;6.13;1.50;;;12.40;99.90;;;;;;4986796;28;20229;-62
2022/10/19 01:12:33;;;;;;;4.38;1.30;;;12.40;99.90;;;;;;4949753;28;20217;-62
2022/10/19 01:15:13;;;;;;;3.67;1.00;;;12.40;99.90;;;;;;4986011;28;20198;-62
2022/10/19 01:17:53;;;;;;;11.32;1.25;;;12.40;99.90;;;;;;5001426;28;20616;-62
2022/10/19 01:20:56;;;;;;;6.00;1.08;;;12.40;99.90;;;;;;4964733;28;20201;-62
2022/10/19 01:23:45;;;;;;;1.80;0.90;;;12.40;99.90;;;;;;5005617;28;21144;-62
2022/10/19 01:26:30;;;;;;;1.92;0.75;;;12.40;99.90;;;;;;4984087;28;20199;-63
2022/10/19 01:29:09;;;;;;;6.97;1.45;;;12.40;99.90;;;;;;4967190;28;20210;-62
2022/10/19 01:31:45;;;;;;;4.20;1.10;;;12.40;99.90;;;;;;4982880;28;20498;-61
2022/10/19 01:34:19;;;;;;;1.85;1.00;;;12.40;99.90;;;;;;4990984;28;20198;-62
2022/10/19 01:36:54;;;;;;;3.33;0.98;;;12.40;99.90;;;;;;4984314;28;20246;-62
2022/10/19 01:39:27;;;;;;;8.27;1.17;;;12.40;99.90;;;;;;4957540;28;22584;-62
2022/10/19 01:42:00;;;;;;;2.75;0.95;;;12.40;99.90;;;;;;4991587;28;20217;-62
2022/10/19 01:44:32;;;;;;;7.28;1.35;;;12.30;99.90;;;;;;4949326;28;20628;-62
2022/10/19 01:47:04;;;;;;;6.78;1.10;;;12.30;99.90;;;;;;4982519;28;20205;-62
2022/10/19 01:49:38;;;;;;;6.05;1.38;;;12.30;99.90;;;;;;4991692;28;20194;-62
2022/10/19 01:52:08;;;;;;;5.38;1.17;;;12.30;99.90;;;;;;4980260;28;20212;-62
2022/10/19 01:54:41;;;;;;;6.43;1.30;;;12.30;99.90;;;;;;4982251;28;20202;-62
2022/10/19 01:57:11;;;;;;;2.63;0.93;;;12.30;99.90;;;;;;4976610;28;20225;-62
2022/10/19 01:59:39;;;;;;;2.22;0.70;;;12.30;99.90;;;;;;4971023;28;20459;-63
2022/10/19 02:02:10;;;;;;;4.80;1.45;;;12.30;99.90;;;;;;4981228;28;20207;-62
2022/10/19 02:04:38;;;;;;;6.07;0.93;;;12.20;99.90;;;;;;4971254;28;20968;-62
2022/10/19 02:07:07;;;;;;;9.70;1.05;;;12.20;99.90;;;;;;4982257;28;20225;-62
2022/10/19 02:09:34;;;;;;;3.33;0.90;;;12.20;99.90;;;;;;4995841;28;20698;-62
2022/10/19 02:12:05;;;;;;;4.47;1.20;;;12.20;99.90;;;;;;4987139;28;21421;-62
2022/10/19 02:14:37;;;;;;;5.72;2.50;;;12.20;99.90;;;;;;4963136;28;20211;-61
2022/10/19 02:17:09;;;;;;;3.65;1.02;;;12.10;99.90;;;;;;4975927;28;20229;-61
2022/10/19 02:19:37;;;;;;;4.57;1.20;;;12.10;99.90;;;;;;4984921;28;20226;-62
2022/10/19 02:22:04;;;;;;;8.85;1.50;;;12.10;99.90;;;;;;4991230;28;20218;-61
2022/10/19 02:24:31;;;;;;;3.88;0.90;;;12.10;99.90;;;;;;4980161;28;20206;-61
2022/10/19 02:26:59;;;;;;;7.13;1.27;;;12.10;99.90;;;;;;4963719;28;20206;-62
2022/10/19 02:29:26;;;;;;;3.83;1.15;;;12.10;99.90;;;;;;4964238;28;20326;-62
2022/10/19 02:31:53;;;;;;;8.07;1.30;;;12.10;99.90;;;;;;4977967;28;20796;-61
2022/10/19 02:34:22;;;;;;;4.78;1.65;;;12.10;99.90;;;;;;4961870;28;20206;-62
2022/10/19 02:36:49;;;;;;;10.15;1.50;;;12.10;99.90;;;;;;5001903;28;20209;-62
2022/10/19 02:39:16;;;;;;;4.57;1.55;;;12.10;99.90;;;;;;4982828;28;20237;-62
2022/10/19 02:41:47;;;;;;;5.28;1.63;;;12.00;99.90;;;;;;4988925;28;20214;-62
2022/10/19 02:44:19;;;;;;;7.57;0.95;;;12.00;99.90;;;;;;4995195;28;20209;-62
2022/10/19 02:46:51;;;;;;;7.55;1.10;;;12.00;99.90;;;;;;5000062;28;20305;-62
2022/10/19 02:49:18;;;;;;;7.65;1.42;;;12.10;99.90;;;;;;4986901;28;20211;-62
2022/10/19 02:52:00;;;;;;;3.20;0.80;;;12.10;99.90;;;;;;4988916;28;20202;-62
2022/10/19 02:54:28;;;;;;;6.63;1.42;;;12.00;99.90;;;;;;4986707;28;20213;-62
2022/10/19 02:56:55;;;;;;;5.40;0.98;;;12.00;99.90;;;;;;4991263;28;20213;-62
2022/10/19 02:59:22;;;;;;;7.05;1.40;;;12.00;99.90;;;;;;4987180;28;20896;-62
2022/10/19 03:01:49;;;;;;;4.25;1.40;;;12.10;99.90;;;;;;4941979;28;20222;-62
2022/10/19 03:04:16;;;;;;;12.27;1.50;;;12.00;99.90;;;;;;4959575;28;20213;-62
2022/10/19 03:06:43;;;;;;;10.32;1.27;;;12.10;99.90;;;;;;4989652;28;20534;-62
2022/10/19 03:09:11;;;;;;;5.30;1.25;;;12.10;99.90;;;;;;5005798;28;20209;-63
2022/10/19 03:11:38;;;;;;;3.10;1.20;;;12.10;99.90;;;;;;4947048;28;20419;-62
2022/10/19 03:14:05;;;;;;;9.15;1.48;;;12.00;99.90;;;;;;4991994;28;20217;-62
2022/10/19 03:16:32;;;;;;;9.00;1.38;;;12.00;99.90;;;;;;4947269;28;20244;-62
2022/10/19 03:18:58;;;;;;;5.80;1.33;;;12.10;99.90;;;;;;4978834;28;20245;-62
2022/10/19 03:21:25;;;;;;;5.03;1.42;;;12.00;99.90;;;;;;4997617;28;20687;-62
2022/10/19 03:23:52;;;;;;;7.57;1.40;;;12.00;99.90;;;;;;4983410;28;20564;-62
2022/10/19 03:26:20;;;;;;;5.55;2.10;;;12.00;99.90;;;;;;4966307;28;20202;-62
2022/10/19 03:28:47;;;;;;;5.85;1.75;;;12.00;99.90;;;;;;4981275;28;20573;-62
2022/10/19 03:31:13;;;;;;;10.20;2.10;;;12.00;99.90;;;;;;4942380;28;124805;-62
2022/10/19 03:33:40;;;;;;;5.85;1.50;;;12.00;99.90;;;;;;4967739;28;21677;-62
2022/10/19 03:36:22;;;;;;;15.57;1.65;;;11.90;99.90;;;;;;5003229;28;20597;-62
2022/10/19 03:38:50;;;;;;;6.20;1.13;;;12.00;99.90;;;;;;4975902;28;20979;-62
2022/10/19 03:41:17;;;;;;;6.82;1.60;;;11.90;99.90;;;;;;4975688;28;20706;-62
2022/10/19 03:43:46;;;;;;;11.85;1.38;;;11.90;99.90;;;;;;4965504;28;20214;-62
2022/10/19 03:46:12;;;;;;;8.43;2.22;;;11.90;99.90;;;;;;4966994;28;20716;-61
2022/10/19 03:48:39;;;;;;;14.43;1.85;;;11.90;99.90;;;;;;4980169;28;20747;-62
2022/10/19 03:51:08;;;;;;;5.85;1.40;;;11.80;99.90;;;;;;4981180;28;20603;-62
2022/10/19 03:53:36;;;;;;;5.25;1.35;;;11.90;99.90;;;;;;4990621;28;20684;-61
2022/10/19 03:56:04;;;;;;;7.68;1.52;;;12.10;99.90;;;;;;4966211;28;20843;-62
2022/10/19 03:58:33;;;;;;;5.68;1.00;;;11.80;99.90;;;;;;4972318;28;20226;-63
2022/10/19 04:01:01;;;;;;;8.23;1.30;;;11.90;99.90;;;;;;4926423;28;20241;-62
2022/10/19 04:03:28;;;;;;;5.18;1.40;;;12.00;99.90;;;;;;4970928;28;20553;-62
2022/10/19 04:06:02;;;;;;;3.85;1.60;;;12.00;99.90;;;;;;4966626;28;20203;-62
2022/10/19 04:08:29;;;;;;;8.25;1.67;;;12.10;99.90;;;;;;4966526;28;20824;-62
2022/10/19 04:10:59;;;;;;;9.50;1.48;;;12.00;99.90;;;;;;4978724;28;20209;-62
2022/10/19 04:13:26;;;;;;;15.85;1.52;;;12.10;99.90;;;;;;4968400;28;20478;-62
2022/10/19 04:15:53;;;;;;;16.33;2.08;;;12.10;99.90;;;;;;4963789;28;20225;-62
2022/10/19 04:18:21;;;;;;;4.85;1.27;;;12.00;99.90;;;;;;4951808;28;20219;-62
2022/10/19 04:20:48;;;;;;;6.45;1.50;;;12.00;99.90;;;;;;4973688;28;20714;-62
2022/10/19 04:23:15;;;;;;;4.65;1.63;;;12.00;99.90;;;;;;4977300;28;20230;-62
2022/10/19 04:25:42;;;;;;;3.20;1.25;;;12.00;99.90;;;;;;4991221;28;20206;-62
2022/10/19 04:28:08;;;;;;;13.52;1.80;;;12.00;99.90;;;;;;4970730;28;20217;-62
2022/10/19 04:30:35;;;;;;;3.25;1.10;;;12.10;99.90;;;;;;4986615;28;20233;-63
2022/10/19 04:33:02;;;;;;;6.22;1.38;;;12.10;99.90;;;;;;4972726;28;20222;-62
2022/10/19 04:35:30;;;;;;;6.43;1.63;;;12.00;99.90;;;;;;4975136;28;20951;-63
2022/10/19 04:37:58;;;;;;;19.65;1.50;;;12.00;99.90;;;;;;4989808;28;20675;-62
2022/10/19 04:40:25;;;;;;;8.15;1.90;;;12.00;99.90;;;;;;4999213;28;20442;-62
2022/10/19 04:42:52;;;;;;;14.45;1.75;;;12.10;99.90;;;;;;4969362;28;22305;-63
2022/10/19 04:45:19;;;;;;;5.20;1.27;;;12.10;99.90;;;;;;4967957;28;20877;-62
2022/10/19 04:47:45;;;;;;;8.20;1.60;;;12.00;99.90;;;;;;4962238;28;20211;-62
2022/10/19 04:50:12;;;;;;;5.20;1.33;;;12.00;99.90;;;;;;4973545;28;20213;-62
2022/10/19 04:52:40;;;;;;;5.75;1.23;;;12.00;99.90;;;;;;4980091;28;20214;-62
2022/10/19 04:55:08;;;;;;;16.35;1.50;;;12.00;99.90;;;;;;4975116;28;20210;-62
2022/10/19 04:57:34;;;;;;;5.90;1.58;;;12.00;99.90;;;;;;4983295;28;20252;-62
2022/10/19 05:00:01;;;;;;;5.32;1.33;;;12.00;99.90;;;;;;4985973;28;20230;-62
2022/10/19 05:02:28;;;;;;;8.55;1.92;;;12.00;99.90;;;;;;4973055;28;20312;-62
2022/10/19 05:04:55;;;;;;;7.65;1.77;;;12.00;99.90;;;;;;4967475;28;20206;-62
2022/10/19 05:07:21;;;;;;;7.65;1.88;;;11.90;99.90;;;;;;4967934;28;20201;-62
2022/10/19 05:09:50;;;;;;;5.95;1.23;;;12.00;99.90;;;;;;4991821;28;20244;-62
2022/10/19 05:12:16;;;;;;;8.77;1.70;;;12.00;99.90;;;;;;4990011;28;20224;-62
2022/10/19 05:14:43;;;;;;;7.82;1.90;;;12.00;99.90;;;;;;4977505;28;20206;-62
2022/10/19 05:17:11;;;;;;;8.52;1.90;;;12.00;99.90;;;;;;4992986;28;20738;-62
2022/10/19 05:19:38;;;;;;;10.40;1.50;;;12.00;99.90;;;;;;4957222;28;20233;-62
2022/10/19 05:22:05;;;;;;;13.85;1.92;;;12.00;99.90;;;;;;4976921;28;20206;-62
2022/10/19 05:24:32;;;;;;;14.68;1.80;;;12.00;99.90;;;;;;4996151;28;21097;-62
2022/10/19 05:27:00;;;;;;;10.32;1.45;;;12.00;99.90;;;;;;4974665;28;20731;-62
2022/10/19 05:29:27;;;;;;;12.55;1.77;;;12.00;99.90;;;;;;4975783;28;20738;-62
2022/10/19 05:31:53;;;;;;;9.95;1.83;;;12.00;99.90;;;;;;4999147;28;20214;-62
2022/10/19 05:34:20;;;;;;;7.85;1.30;;;12.00;99.90;;;;;;4960085;28;20214;-62
2022/10/19 05:36:47;;;;;;;10.50;1.55;;;11.90;99.90;;;;;;4997129;28;20205;-62
2022/10/19 05:39:15;;;;;;;7.05;1.40;;;12.00;99.90;;;;;;4990538;28;20229;-63
2022/10/19 05:41:44;;;;;;;14.02;1.48;;;12.00;99.90;;;;;;4987554;28;20198;-62
2022/10/19 05:44:15;;;;;;;11.18;1.88;;;12.00;99.90;;;;;;4973231;28;20202;-62
2022/10/19 05:46:42;;;;;;;4.22;1.38;;;12.00;99.90;;;;;;4980713;28;20206;-62
2022/10/19 05:49:10;;;;;;;16.38;2.15;;;12.00;99.90;;;;;;4964246;28;20237;-62
2022/10/19 05:51:38;;;;;;;10.07;1.75;;;12.10;99.90;;;;;;4968523;28;21231;-62
2022/10/19 05:54:05;;;;;;;21.90;1.75;;;12.10;99.90;;;;;;4978029;28;20565;-62
2022/10/19 05:56:32;;;;;;;10.27;1.83;;;12.00;99.90;;;;;;4986832;28;20205;-62
2022/10/19 05:59:01;;;;;;;14.55;1.50;;;12.00;99.90;;;;;;4977152;28;20205;-62
2022/10/19 06:01:30;;;;;;;7.90;1.58;;;12.00;99.90;;;;;;4987720;28;20205;-62
2022/10/19 06:04:00;;;;;;;4.40;1.45;;;12.00;99.90;;;;;;4961347;28;20698;-62
2022/10/19 06:06:28;;;;;;;7.60;2.03;;;12.10;99.90;;;;;;4980070;28;20211;-62
2022/10/19 06:08:57;;;;;;;10.02;1.58;;;12.10;99.90;;;;;;4978917;28;20727;-62
2022/10/19 06:11:27;;;;;;;10.23;1.77;;;12.00;99.90;;;;;;4981214;28;20352;-62
2022/10/19 06:13:56;;;;;;;9.18;1.42;;;12.10;99.90;;;;;;4968899;28;20214;-62
2022/10/19 06:16:23;;;;;;;5.80;1.23;;;11.60;99.90;;;;;;4985907;28;21082;-62
2022/10/19 06:18:52;;;;;;;17.38;1.23;;;12.10;99.90;;;;;;4976747;28;20293;-62
2022/10/19 06:21:21;;;;;;;6.60;1.30;;;12.10;99.90;;;;;;4970719;28;20230;-62
2022/10/19 06:23:50;;;;;;;8.80;1.48;;;12.10;99.90;;;;;;4991801;28;20522;-62
2022/10/19 06:26:17;;;;;;;8.30;1.30;;;12.10;99.90;;;;;;4980245;28;20221;-62
2022/10/19 06:28:44;;;;;;;17.30;1.90;;;12.10;99.90;;;;;;4958914;28;20207;-61
2022/10/19 06:31:12;;;;;;;5.32;1.65;;;12.10;99.90;;;;;;4974091;28;20720;-62
2022/10/19 06:33:40;;;;;;;7.30;1.63;;;12.10;99.90;;;;;;4972801;28;20213;-63
2022/10/19 06:36:09;;;;;;;12.02;2.10;;;12.00;99.90;;;;;;4947311;28;20245;-62
2022/10/19 06:38:36;;;;;;;6.30;1.55;;;12.10;99.90;;;;;;4996398;28;20202;-62
2022/10/19 06:41:03;;;;;;;18.70;2.05;;;12.10;99.90;;;;;;4984976;28;20226;-63
2022/10/19 06:43:30;;;;;;;14.65;2.05;;;12.10;99.90;;;;;;4969882;28;20566;-62
2022/10/19 06:45:57;;;;;;;16.42;1.98;;;12.10;99.90;;;;;;4985745;28;20207;-62
2022/10/19 06:48:24;;;;;;;13.75;2.15;;;12.10;99.90;;;;;;4951754;28;20361;-62
2022/10/19 06:50:56;;;;;;;7.15;1.60;;;12.20;99.90;;;;;;4971675;28;21513;-62
2022/10/19 06:53:24;;;;;;;18.38;1.90;;;12.20;99.90;;;;;;4991935;28;20730;-61
2022/10/19 06:55:51;;;;;;;8.27;2.33;;;12.20;99.90;;;;;;4975469;28;20237;-62
2022/10/19 06:58:18;;;;;;;8.18;1.10;;;12.10;99.90;;;;;;4986115;28;20229;-62
2022/10/19 07:00:45;;;;;;;6.60;1.42;;;12.10;99.90;;;;;;4964994;28;21540;-62
2022/10/19 07:03:12;;;;;;;6.95;1.70;;;12.10;99.90;;;;;;4988073;28;20213;-62
2022/10/19 07:05:38;;;;;;;6.07;1.00;;;12.10;99.90;;;;;;4963902;28;20221;-62
2022/10/19 07:08:05;;;;;;;9.23;1.30;;;12.10;99.90;;;;;;4981632;28;20210;-62
2022/10/19 07:10:33;;;;;;;6.32;0.95;;;12.10;99.90;;;;;;4981630;28;20198;-62
2022/10/19 07:13:00;;;;;;;6.40;1.20;;;12.20;99.90;;;;;;4985315;28;20545;-62
2022/10/19 07:15:27;;;;;;;4.78;1.25;;;12.20;99.90;;;;;;4977636;28;21471;-62
2022/10/19 07:17:53;;;;;;;5.32;1.02;;;12.20;99.90;;;;;;4964350;28;20230;-61
2022/10/19 07:20:20;;;;;;;6.95;1.27;;;12.20;99.90;;;;;;4949426;28;20692;-62
2022/10/19 07:22:47;;;;;;;12.88;1.08;;;12.30;99.90;;;;;;4992019;28;20221;-62
2022/10/19 07:25:14;;;;;;;10.38;1.58;;;12.30;99.90;;;;;;4970533;28;20683;-62
2022/10/19 07:27:42;;;;;;;4.75;0.90;;;12.30;99.90;;;;;;4981025;28;20222;-61
2022/10/19 07:30:09;;;;;;;4.40;1.05;;;12.30;99.90;;;;;;4966633;28;20240;-62
2022/10/19 07:32:36;;;;;;;9.73;1.17;;;12.40;99.90;;;;;;4966850;28;20404;-62
2022/10/19 07:35:03;;;;;;;7.10;1.23;;;12.40;99.90;;;;;;4979558;28;20211;-62
2022/10/19 07:37:30;;;;;;;11.23;1.48;;;12.30;99.90;;;;;;4962736;28;20340;-62
2022/10/19 07:39:56;;;;;;;5.53;1.05;;;12.40;99.90;;;;;;4990005;28;20230;-62
2022/10/19 07:42:23;;;;;;;2.67;1.00;;;12.40;99.90;;;;;;4958999;28;20483;-61
2022/10/19 07:44:51;;;;;;;9.82;1.75;;;12.40;99.90;;;;;;4993217;28;21435;-62
2022/10/19 07:47:18;;;;;;;9.00;1.17;;;12.50;99.90;;;;;;4947087;28;20199;-62
2022/10/19 07:49:45;;;;;;;4.70;1.20;;;12.50;99.90;;;;;;4986941;28;20706;-61
2022/10/19 07:52:11;;;;;;;3.78;1.38;;;12.50;99.90;;;;;;4957904;28;20214;-62
2022/10/19 07:54:38;;;;;;;7.72;1.20;;;12.50;99.90;;;;;;4973129;28;20206;-62
2022/10/19 07:57:05;;;;;;;6.28;1.17;;;12.50;99.90;;;;;;4982193;28;20205;-62
2022/10/19 07:59:32;;;;;;;4.07;0.85;;;12.50;99.90;;;;;;4971696;28;20194;-61
2022/10/19 08:02:03;;;;;;;5.65;1.20;;;12.50;99.90;;;;;;4964419;28;20653;-61
2022/10/19 08:04:30;;;;;;;9.05;1.60;;;12.50;99.90;;;;;;4977850;28;20447;-63
2022/10/19 08:06:57;;;;;;;6.65;1.35;;;12.50;99.90;;;;;;4933238;28;20389;-61
2022/10/19 08:09:23;;;;;;;9.45;1.25;;;12.50;99.90;;;;;;4986308;28;20671;-61
2022/10/19 08:11:50;;;;;;;8.88;1.23;;;12.50;99.90;;;;;;4955628;28;20415;-62
2022/10/19 08:14:17;;;;;;;9.70;1.67;;;12.60;99.90;;;;;;4986050;28;20538;-62
2022/10/19 08:16:44;;;;;;;4.85;1.23;;;12.60;99.90;;;;;;4974265;28;21548;-62
2022/10/19 08:19:13;;;;;;;6.35;1.30;;;12.60;99.90;;;;;;4979061;28;20226;-62
2022/10/19 08:21:42;;;;;;;5.63;1.58;;;12.60;99.90;;;;;;4935409;28;20694;-63
2022/10/19 08:24:10;;;;;;;1.98;0.85;;;12.60;99.90;;;;;;4976500;28;20252;-62
2022/10/19 08:26:38;;;;;;;12.70;1.73;;;12.70;99.90;;;;;;4958218;28;20739;-62
2022/10/19 08:29:07;;;;;;;7.97;1.88;;;12.70;99.90;;;;;;4988467;28;20221;-61
2022/10/19 08:31:34;;;;;;;3.83;1.23;;;12.70;99.90;;;;;;4971797;28;20230;-62
2022/10/19 08:34:01;;;;;;;8.50;1.27;;;12.60;99.90;;;;;;4962971;28;20226;-62
2022/10/19 08:36:31;;;;;;;13.05;1.65;;;12.60;99.90;;;;;;4976476;28;20206;-62
2022/10/19 08:38:58;;;;;;;2.50;1.02;;;12.60;99.90;;;;;;4960426;28;20241;-62
2022/10/19 08:41:33;;;;;;;8.38;1.20;;;12.70;99.90;;;;;;4995060;28;20230;-62
2022/10/19 08:44:20;;;;;;;4.28;0.98;;;12.70;99.90;;;;;;4987497;28;20227;-62
2022/10/19 08:46:54;;;;;;;6.18;1.55;;;12.70;99.90;;;;;;4983427;28;21278;-62
2022/10/19 08:49:24;;;;;;;5.28;1.15;;;12.70;99.90;;;;;;4971162;28;21586;-61
2022/10/19 08:51:57;;;;;;;4.13;1.23;;;12.80;99.90;;;;;;4969080;28;21234;-61
2022/10/19 08:54:29;;;;;;;6.75;1.20;;;12.80;99.90;;;;;;4969248;28;20836;-62
2022/10/19 08:57:06;;;;;;;4.00;1.27;;;12.80;99.90;;;;;;4969978;28;20232;-62
2022/10/19 08:59:40;;;;;;;3.00;1.10;;;12.80;99.90;;;;;;4960711;28;21359;-62
2022/10/19 09:02:16;;;;;;;8.10;1.33;;;12.80;99.90;;;;;;4981168;28;21300;-62
2022/10/19 09:04:48;;;;;;;9.95;1.50;;;12.70;99.90;;;;;;4955946;28;20222;-62
2022/10/19 09:07:24;;;;;;;3.95;1.27;;;12.80;99.90;;;;;;4984943;28;20210;-62
2022/10/19 09:09:54;;;;;;;4.93;1.00;;;12.80;99.90;;;;;;4949355;28;20216;-62
2022/10/19 09:12:33;;;;;;;1.65;1.00;;;12.90;99.90;;;;;;4980697;28;20594;-62
2022/10/19 09:15:03;;;;;;;9.38;1.40;;;12.90;99.90;;;;;;4975567;28;20308;-62
2022/10/19 09:17:31;;;;;;;8.55;1.50;;;12.90;99.90;;;;;;4990534;28;20206;-61
2022/10/19 09:20:09;;;;;;;5.88;1.98;;;12.90;99.90;;;;;;4962600;28;20696;-61
2022/10/19 09:22:37;;;;;;;6.65;1.48;;;12.90;99.90;;;;;;4985684;28;20236;-62
2022/10/19 09:25:12;;;;;;;5.47;0.90;;;12.90;99.90;;;;;;4954160;28;20557;-62
2022/10/19 09:27:41;;;;;;;3.78;1.17;;;13.00;99.90;;;;;;4982723;28;20220;-62
2022/10/19 09:30:17;;;;;;;5.85;1.38;;;13.00;99.90;;;;;;4992793;28;20360;-62
2022/10/19 09:32:44;;;;;;;3.33;1.10;;;13.10;99.90;;;;;;4980505;28;20198;-62
2022/10/19 09:35:26;;;;;;;6.47;1.23;;;13.10;99.90;;;;;;4961636;28;20230;-61
2022/10/19 09:37:55;;;;;;;8.02;1.30;;;13.10;99.90;;;;;;4947216;28;20218;-61
2022/10/19 09:40:25;;;;;;;9.55;1.30;;;13.00;99.90;;;;;;4967773;28;20229;-61
2022/10/19 09:42:56;;;;;;;3.40;1.00;;;13.00;99.90;;;;;;4965224;28;20222;-62
2022/10/19 09:45:32;;;;;;;6.13;1.20;;;13.00;99.90;;;;;;5046051;22;20228;-62
2022/10/19 09:48:02;;;;;;;7.70;1.48;;;13.00;99.90;;;;;;5050286;28;20204;-61
2022/10/19 09:50:30;;;;;;;4.85;1.13;;;13.00;99.90;;;;;;5054009;28;20200;-63
2022/10/19 09:53:00;;;;;;;5.57;1.35;;;13.10;99.90;;;;;;5039952;28;20204;-61
2022/10/19 09:55:33;;;;;;;4.00;1.35;;;13.10;99.90;;;;;;5032042;28;20211;-61
2022/10/19 09:58:03;;;;;;;7.30;1.30;;;13.10;99.90;;;;;;5040926;28;20880;-62
2022/10/19 10:00:41;;;;;;;5.20;1.00;;;13.10;99.90;;;;;;5060887;28;20213;-62
2022/10/19 10:03:08;;;;;;;2.22;0.95;;;13.10;99.90;;;;;;5052977;28;20863;-61
2022/10/19 10:05:37;;;;;;;4.60;1.30;;;13.10;99.90;;;;;;5061620;28;20573;-62
2022/10/19 10:08:13;;;;;;;7.47;1.60;;;13.10;99.90;;;;;;5038419;28;20231;-62
2022/10/19 10:10:46;;;;;;;8.40;1.38;;;13.20;99.90;;;;;;5023089;28;20255;-62
2022/10/19 10:13:17;;;;;;;7.75;1.45;;;13.20;99.90;;;;;;5035105;28;23853;-62
2022/10/19 10:15:47;;;;;;;2.50;1.20;;;13.20;99.90;;;;;;5061620;28;20223;-61
2022/10/19 10:18:16;;;;;;;5.00;1.45;;;13.20;99.90;;;;;;5054961;28;20236;-61
2022/10/19 10:20:58;;;;;;;3.78;1.30;;;13.20;99.90;;;;;;5055318;28;20818;-61
2022/10/19 10:23:30;;;;;;;7.30;1.55;;;13.20;99.90;;;;;;5043612;28;20215;-62
2022/10/19 10:25:59;;;;;;;6.85;1.42;;;13.20;99.90;;;;;;5043541;28;20764;-62
2022/10/19 10:28:30;;;;;;;2.63;1.50;;;13.10;99.90;;;;;;5003469;28;20204;-63
2022/10/19 10:31:02;;;;;;;4.15;1.20;;;13.30;99.90;;;;;;5049258;28;20224;-61
2022/10/19 10:33:30;;;;;;;2.50;1.10;;;13.10;99.90;;;;;;5046327;28;20207;-62
2022/10/19 10:36:03;;;;;;;4.82;1.35;;;13.10;99.90;;;;;;5052091;28;20295;-62
2022/10/19 10:38:34;;;;;;;10.02;1.58;;;13.10;99.90;;;;;;5040507;28;20231;-62
2022/10/19 10:41:06;;;;;;;6.38;1.63;;;13.10;99.90;;;;;;5027830;28;20285;-62
2022/10/19 10:43:35;;;;;;;4.18;1.30;;;13.10;99.90;;;;;;4996068;28;20214;-62
2022/10/19 10:46:05;;;;;;;7.20;1.48;;;13.10;99.90;;;;;;5034436;28;20235;-61
2022/10/19 10:48:35;;;;;;;2.58;1.23;;;13.10;99.90;;;;;;5035963;28;20220;-62
2022/10/19 10:51:03;;;;;;;5.63;3.20;;;13.10;99.90;;;;;;5039238;28;20232;-61
2022/10/19 10:53:38;;;;;;;3.33;1.10;;;13.10;99.90;;;;;;5034534;28;20242;-62
2022/10/19 10:56:19;;;;;;;5.88;1.45;;;13.10;99.90;;;;;;5040801;28;20233;-62
2022/10/19 10:58:50;;;;;;;5.05;1.10;;;13.20;99.90;;;;;;5004575;28;20349;-62
2022/10/19 11:01:20;;;;;;;4.85;1.45;;;13.30;99.90;;;;;;5036541;28;20230;-61
2022/10/19 11:03:54;;;;;;;7.03;1.42;;;13.30;99.90;;;;;;5050218;28;20632;-62
2022/10/19 11:06:25;;;;;;;13.35;1.27;;;13.40;99.90;;;;;;5040633;28;20224;-62
2022/10/19 11:09:01;;;;;;;4.95;1.20;;;13.40;99.90;;;;;;5035868;28;20205;-62
2022/10/19 11:11:32;;;;;;;2.53;1.00;;;13.40;99.90;;;;;;5027579;28;20724;-63
2022/10/19 11:14:04;;;;;;;5.43;1.50;;;13.40;99.90;;;;;;4992053;28;20255;-63
2022/10/19 11:16:34;;;;;;;2.80;1.02;;;13.30;99.90;;;;;;5038586;28;20207;-62
2022/10/19 11:19:11;;;;;;;6.68;1.38;;;13.30;99.90;;;;;;5049634;28;20316;-61
2022/10/19 11:21:46;;;;;;;4.80;1.45;;;13.30;99.90;;;;;;5045284;28;20344;-62
2022/10/19 11:24:22;;;;;;;6.53;1.35;;;13.20;99.90;;;;;;5031517;28;20210;-61
2022/10/19 11:27:04;;;;;;;8.48;1.55;;;13.20;99.90;;;;;;5038788;28;20714;-62
2022/10/19 11:29:45;;;;;;;3.60;1.25;;;13.30;99.90;;;;;;5010937;28;20228;-61
2022/10/19 11:32:22;;;;;;;3.83;1.10;;;13.30;99.90;;;;;;5016212;28;21078;-61
2022/10/19 11:35:03;;;;;;;10.60;1.58;;;13.30;99.90;;;;;;5049530;28;20196;-62
2022/10/19 11:37:39;;;;;;;3.20;1.05;;;13.30;99.90;;;;;;5057358;28;20591;-61
2022/10/19 11:40:16;;;;;;;2.90;0.90;;;13.30;99.90;;;;;;5030808;28;20279;-62
2022/10/19 11:42:53;;;;;;;1.98;1.10;;;13.30;99.90;;;;;;5016752;28;20239;-62
2022/10/19 11:45:33;;;;;;;10.82;1.65;;;13.30;99.90;;;;;;5006769;28;20627;-62
2022/10/19 11:48:16;;;;;;;3.17;1.52;;;13.30;99.90;;;;;;5031128;28;20246;-62
2022/10/19 11:50:50;;;;;;;4.45;1.30;;;13.30;99.90;;;;;;5038614;28;20207;-62
2022/10/19 11:53:31;;;;;;;2.90;1.20;;;13.40;99.90;;;;;;5059202;28;20192;-62
2022/10/19 11:56:05;;;;;;;8.05;1.63;;;13.40;99.90;;;;;;5035788;28;21101;-61
2022/10/19 11:58:45;;;;;;;10.98;1.67;;;13.30;99.90;;;;;;5033830;28;20863;-62
2022/10/19 12:01:21;;;;;;;3.80;1.10;;;13.50;99.90;;;;;;4995392;28;20232;-62
2022/10/19 12:04:06;;;;;;;6.43;1.48;;;13.50;99.90;;;;;;5027993;28;20225;-61
2022/10/19 12:06:45;;;;;;;10.75;1.60;;;13.50;99.90;;;;;;5044595;28;20234;-61
2022/10/19 12:09:27;;;;;;;7.82;1.02;;;13.50;99.90;;;;;;5036030;28;20561;-62
2022/10/19 12:12:08;;;;;;;3.80;1.45;;;13.50;99.90;;;;;;5031865;28;20410;-62
2022/10/19 12:14:40;;;;;;;3.70;1.30;;;13.60;99.90;;;;;;5030899;28;20319;-62
2022/10/19 12:17:10;;;;;;;8.68;1.15;;;13.60;99.90;;;;;;5013042;28;20215;-62
2022/10/19 12:19:42;;;;;;;2.42;1.20;;;13.60;99.90;;;;;;5018026;28;21097;-62
2022/10/19 12:22:16;;;;;;;8.43;1.55;;;13.60;99.90;;;;;;5021694;28;20223;-62
2022/10/19 12:24:43;;;;;;;2.05;1.15;;;13.50;99.90;;;;;;5044134;28;20439;-62
2022/10/19 12:27:16;;;;;;;6.10;1.58;;;13.50;99.90;;;;;;5017565;28;20337;-61
2022/10/19 12:29:47;;;;;;;7.55;1.45;;;13.50;99.90;;;;;;5032206;28;21472;-61
2022/10/19 12:32:17;;;;;;;1.60;0.90;;;13.50;99.90;;;;;;4986722;28;20208;-61
2022/10/19 12:34:51;;;;;;;4.63;1.17;;;13.50;99.90;;;;;;5006050;28;20570;-61
2022/10/19 12:37:26;;;;;;;3.53;1.05;;;13.50;99.90;;;;;;5033317;28;20872;-62
2022/10/19 12:39:58;;;;;;;4.97;1.42;;;13.50;99.90;;;;;;5048834;28;20236;-61
2022/10/19 12:42:31;;;;;;;3.90;1.17;;;13.50;99.90;;;;;;5020213;28;20232;-62
2022/10/19 12:45:12;;;;;;;5.20;1.20;;;13.50;99.90;;;;;;5050179;28;20661;-61
2022/10/19 12:47:40;;;;;;;5.60;1.77;;;13.60;99.90;;;;;;5007629;28;20231;-62
2022/10/19 12:50:07;;;;;;;6.85;1.55;;;13.50;99.90;;;;;;5031819;28;20235;-61
2022/10/19 12:52:38;;;;;;;9.65;1.67;;;13.50;99.90;;;;;;5024722;28;20238;-61
2022/10/19 12:55:27;;;;;;;4.47;1.00;;;13.50;99.90;;;;;;5034476;28;20220;-61
2022/10/19 12:58:01;;;;;;;7.78;1.50;;;13.50;99.90;;;;;;5014384;28;20469;-61
2022/10/19 13:00:31;;;;;;;5.55;1.40;;;13.50;99.90;;;;;;5035605;28;20227;-61